Terminal Aerodrome Forecast
Issued by NWS

Home | Current Version | Previous Version | Text Only | Print | Product List | Glossary On
Versions: 1 2 3 4 5 6 7 8 9 10 11 12 13 14 15 16 17 18 19 20 21 22 23 24 25 26 27 28 29
000
FTAK31 PANC 281359 AAA
TAFADQ
TAF AMD
PADQ 281359Z 2814/0112 16003KT 5SM BR SCT006 OVC015
      TEMPO 2814/2816 2SM BR BKN002
     FM281600 VRB03KT 4SM -RA BR OVC005
     FM282000 VRB03KT P6SM OVC008
     FM010200 34006KT P6SM OVC015
     FM010600 31006KT P6SM SCT100=

USA.gov is the U.S. government's official web portal to all federal, state and local government web resources and services.